航空天氣報告(METAR) 航空天氣預測(TAF) 其他聯結
怎樣閱讀航空天氣報告? 過往48小時航空天氣(METAR)報告
本月內所有航空天氣(METAR)報告
最新航空天氣報告(METAR)(香港國際機場發出)
地區編碼:VHHH

METAR VHHH 270200Z 06008KT 7000 FEW025 SCT045 26/21 Q1016 NOSIG= 

最新航空天氣預測(TAF)(香港國際機場發出)
地區編碼:VHHH

TAF VHHH 262300Z 2700/2806 VRB05KT 7000 FEW020 SCT040 TX26/2706Z 
TX27/2806Z TN24/2723Z TEMPO 2700/2706 3500 BR TEMPO 2703/2709 28010KT 
TEMPO 2706/2712 2500 BR RA BECMG 2721/2723 08010KT= 

其他聯結

National Weather Service (NWS)

請選擇氣象中心地點:

最新METAR報告:

最新TAF報告:

香港地下天文台

地區編碼:VHHH (香港國際機場)

最新地面氣象分析報告 (每六小時更新一次)
最新METAR報告
最新TAF報告

Hong Kong Weather Graphics

地區編碼:VHHH (香港國際機場)

此網站將過往72小時的METAR報告繪成以下圖表。

氣溫
能見度
大氣氣壓
風向及風速

香港天文台

香港航空天氣預報
機場天氣報告(METAR/SPECI)
機場天氣預報(TAF)


如對本網頁有任何意見,歡迎電郵致webmaster@weatherland.org.hk